sensor_id;sensor_type;location;lat;lon;timestamp;pressure;altitude;pressure_sealevel;temperature
38114;BMP180;23926;53.222;6.354;2023-03-29T00:01:46;101436.00;;;8.90
38114;BMP180;23926;53.222;6.354;2023-03-29T00:04:12;101439.00;;;8.90
38114;BMP180;23926;53.222;6.354;2023-03-29T00:06:38;101441.00;;;8.90
38114;BMP180;23926;53.222;6.354;2023-03-29T00:09:03;101435.00;;;8.90
38114;BMP180;23926;53.222;6.354;2023-03-29T00:11:30;101433.00;;;9.00
38114;BMP180;23926;53.222;6.354;2023-03-29T00:13:55;101434.00;;;9.00
38114;BMP180;23926;53.222;6.354;2023-03-29T00:16:21;101424.00;;;8.90
38114;BMP180;23926;53.222;6.354;2023-03-29T00:18:46;101433.00;;;9.00
38114;BMP180;23926;53.222;6.354;2023-03-29T00:21:12;101433.00;;;9.00
38114;BMP180;23926;53.222;6.354;2023-03-29T00:23:37;101424.00;;;9.00
38114;BMP180;23926;53.222;6.354;2023-03-29T00:26:02;101420.00;;;9.00
38114;BMP180;23926;53.222;6.354;2023-03-29T00:28:28;101420.00;;;9.00
38114;BMP180;23926;53.222;6.354;2023-03-29T00:31:12;101428.00;;;8.90
38114;BMP180;23926;53.222;6.354;2023-03-29T00:33:38;101422.00;;;9.00
38114;BMP180;23926;53.222;6.354;2023-03-29T00:36:05;101423.00;;;8.90
38114;BMP180;23926;53.222;6.354;2023-03-29T00:38:31;101417.00;;;9.00
38114;BMP180;23926;53.222;6.354;2023-03-29T00:40:57;101408.00;;;9.00
38114;BMP180;23926;53.222;6.354;2023-03-29T00:43:23;101389.00;;;9.10
38114;BMP180;23926;53.222;6.354;2023-03-29T00:45:48;101393.00;;;9.00
38114;BMP180;23926;53.222;6.354;2023-03-29T00:48:21;101399.00;;;9.00
38114;BMP180;23926;53.222;6.354;2023-03-29T00:50:54;101400.00;;;8.90
38114;BMP180;23926;53.222;6.354;2023-03-29T00:56:05;101379.00;;;8.90
38114;BMP180;23926;53.222;6.354;2023-03-29T00:58:59;101389.00;;;8.90
38114;BMP180;23926;53.222;6.354;2023-03-29T01:01:40;101366.00;;;8.90
38114;BMP180;23926;53.222;6.354;2023-03-29T01:04:40;101380.00;;;8.90
38114;BMP180;23926;53.222;6.354;2023-03-29T01:07:30;101381.00;;;8.90
38114;BMP180;23926;53.222;6.354;2023-03-29T01:10:09;101373.00;;;9.00
38114;BMP180;23926;53.222;6.354;2023-03-29T01:12:43;101373.00;;;9.00
38114;BMP180;23926;53.222;6.354;2023-03-29T01:15:22;101359.00;;;8.90
38114;BMP180;23926;53.222;6.354;2023-03-29T01:17:49;101368.00;;;9.00
38114;BMP180;23926;53.222;6.354;2023-03-29T01:20:28;101338.00;;;8.90
38114;BMP180;23926;53.222;6.354;2023-03-29T01:28:21;101337.00;;;9.00
38114;BMP180;23926;53.222;6.354;2023-03-29T01:31:07;101324.00;;;8.90
38114;BMP180;23926;53.222;6.354;2023-03-29T01:33:41;101322.00;;;9.00
38114;BMP180;23926;53.222;6.354;2023-03-29T01:36:35;101332.00;;;9.00
38114;BMP180;23926;53.222;6.354;2023-03-29T01:39:04;101332.00;;;9.00
38114;BMP180;23926;53.222;6.354;2023-03-29T01:41:45;101328.00;;;9.00
38114;BMP180;23926;53.222;6.354;2023-03-29T01:44:18;101330.00;;;9.00
38114;BMP180;23926;53.222;6.354;2023-03-29T01:46:59;101323.00;;;8.90
38114;BMP180;23926;53.222;6.354;2023-03-29T01:52:52;101326.00;;;8.90
38114;BMP180;23926;53.222;6.354;2023-03-29T01:55:31;101320.00;;;8.90
38114;BMP180;23926;53.222;6.354;2023-03-29T01:57:58;101319.00;;;9.00
38114;BMP180;23926;53.222;6.354;2023-03-29T02:00:26;101315.00;;;9.00
38114;BMP180;23926;53.222;6.354;2023-03-29T02:02:55;101307.00;;;9.00
38114;BMP180;23926;53.222;6.354;2023-03-29T02:05:25;101308.00;;;9.00
38114;BMP180;23926;53.222;6.354;2023-03-29T02:07:53;101302.00;;;9.00
38114;BMP180;23926;53.222;6.354;2023-03-29T02:10:20;101309.00;;;9.00
38114;BMP180;23926;53.222;6.354;2023-03-29T02:12:46;101304.00;;;8.90
38114;BMP180;23926;53.222;6.354;2023-03-29T02:15:15;101299.00;;;9.00
38114;BMP180;23926;53.222;6.354;2023-03-29T02:17:41;101284.00;;;8.90
38114;BMP180;23926;53.222;6.354;2023-03-29T02:20:29;101286.00;;;8.90
38114;BMP180;23926;53.222;6.354;2023-03-29T02:25:21;101272.00;;;9.00
38114;BMP180;23926;53.222;6.354;2023-03-29T02:27:49;101285.00;;;9.00
38114;BMP180;23926;53.222;6.354;2023-03-29T02:30:17;101271.00;;;9.10
38114;BMP180;23926;53.222;6.354;2023-03-29T02:32:51;101266.00;;;9.00
38114;BMP180;23926;53.222;6.354;2023-03-29T02:35:21;101268.00;;;9.00
38114;BMP180;23926;53.222;6.354;2023-03-29T02:37:53;101273.00;;;9.00
38114;BMP180;23926;53.222;6.354;2023-03-29T02:40:20;101272.00;;;9.10
38114;BMP180;23926;53.222;6.354;2023-03-29T02:42:47;101263.00;;;9.10
38114;BMP180;23926;53.222;6.354;2023-03-29T02:45:15;101244.00;;;9.20
38114;BMP180;23926;53.222;6.354;2023-03-29T02:47:45;101255.00;;;9.20
38114;BMP180;23926;53.222;6.354;2023-03-29T02:50:12;101241.00;;;9.20
38114;BMP180;23926;53.222;6.354;2023-03-29T02:52:42;101242.00;;;9.20
38114;BMP180;23926;53.222;6.354;2023-03-29T02:55:14;101253.00;;;9.20
38114;BMP180;23926;53.222;6.354;2023-03-29T02:57:41;101248.00;;;9.10
38114;BMP180;23926;53.222;6.354;2023-03-29T03:00:08;101246.00;;;9.10
38114;BMP180;23926;53.222;6.354;2023-03-29T03:02:35;101247.00;;;9.20
38114;BMP180;23926;53.222;6.354;2023-03-29T03:05:02;101242.00;;;9.20
38114;BMP180;23926;53.222;6.354;2023-03-29T03:07:28;101237.00;;;9.20
38114;BMP180;23926;53.222;6.354;2023-03-29T03:09:54;101232.00;;;9.30
38114;BMP180;23926;53.222;6.354;2023-03-29T03:12:19;101242.00;;;9.20
38114;BMP180;23926;53.222;6.354;2023-03-29T03:14:45;101235.00;;;9.20
38114;BMP180;23926;53.222;6.354;2023-03-29T03:17:10;101225.00;;;9.10
38114;BMP180;23926;53.222;6.354;2023-03-29T03:19:36;101218.00;;;9.20
38114;BMP180;23926;53.222;6.354;2023-03-29T03:22:01;101213.00;;;9.20
38114;BMP180;23926;53.222;6.354;2023-03-29T03:24:27;101224.00;;;9.20
38114;BMP180;23926;53.222;6.354;2023-03-29T03:26:52;101208.00;;;9.30
38114;BMP180;23926;53.222;6.354;2023-03-29T03:29:18;101204.00;;;9.30
38114;BMP180;23926;53.222;6.354;2023-03-29T03:31:44;101200.00;;;9.20
38114;BMP180;23926;53.222;6.354;2023-03-29T03:34:09;101207.00;;;9.20
38114;BMP180;23926;53.222;6.354;2023-03-29T03:36:35;101214.00;;;9.20
38114;BMP180;23926;53.222;6.354;2023-03-29T03:39:01;101208.00;;;9.20
38114;BMP180;23926;53.222;6.354;2023-03-29T03:41:30;101197.00;;;9.20
38114;BMP180;23926;53.222;6.354;2023-03-29T03:43:57;101197.00;;;9.20
38114;BMP180;23926;53.222;6.354;2023-03-29T03:46:22;101200.00;;;9.10
38114;BMP180;23926;53.222;6.354;2023-03-29T03:48:47;101211.00;;;9.20
38114;BMP180;23926;53.222;6.354;2023-03-29T03:51:13;101196.00;;;9.20
38114;BMP180;23926;53.222;6.354;2023-03-29T03:53:39;101214.00;;;9.10
38114;BMP180;23926;53.222;6.354;2023-03-29T03:56:05;101193.00;;;9.20
38114;BMP180;23926;53.222;6.354;2023-03-29T03:58:34;101200.00;;;9.20
38114;BMP180;23926;53.222;6.354;2023-03-29T04:01:00;101204.00;;;9.20
38114;BMP180;23926;53.222;6.354;2023-03-29T04:03:26;101200.00;;;9.20
38114;BMP180;23926;53.222;6.354;2023-03-29T04:05:52;101178.00;;;9.20
38114;BMP180;23926;53.222;6.354;2023-03-29T04:08:17;101183.00;;;9.20
38114;BMP180;23926;53.222;6.354;2023-03-29T04:10:53;101191.00;;;9.30
38114;BMP180;23926;53.222;6.354;2023-03-29T04:13:20;101183.00;;;9.20
38114;BMP180;23926;53.222;6.354;2023-03-29T04:15:47;101183.00;;;9.30
38114;BMP180;23926;53.222;6.354;2023-03-29T04:18:14;101179.00;;;9.30
38114;BMP180;23926;53.222;6.354;2023-03-29T04:20:41;101176.00;;;9.30
38114;BMP180;23926;53.222;6.354;2023-03-29T04:23:07;101171.00;;;9.30
38114;BMP180;23926;53.222;6.354;2023-03-29T04:25:32;101166.00;;;9.30
38114;BMP180;23926;53.222;6.354;2023-03-29T04:27:58;101171.00;;;9.30
38114;BMP180;23926;53.222;6.354;2023-03-29T04:30:23;101173.00;;;9.30
38114;BMP180;23926;53.222;6.354;2023-03-29T04:32:49;101176.00;;;9.40
38114;BMP180;23926;53.222;6.354;2023-03-29T04:35:14;101164.00;;;9.30
38114;BMP180;23926;53.222;6.354;2023-03-29T04:37:40;101162.00;;;9.30
38114;BMP180;23926;53.222;6.354;2023-03-29T04:40:06;101155.00;;;9.30
38114;BMP180;23926;53.222;6.354;2023-03-29T04:42:42;101159.00;;;9.30
38114;BMP180;23926;53.222;6.354;2023-03-29T04:45:09;101148.00;;;9.40
38114;BMP180;23926;53.222;6.354;2023-03-29T04:47:35;101149.00;;;9.30
38114;BMP180;23926;53.222;6.354;2023-03-29T04:50:04;101160.00;;;9.30
38114;BMP180;23926;53.222;6.354;2023-03-29T04:52:30;101164.00;;;9.40
38114;BMP180;23926;53.222;6.354;2023-03-29T04:54:58;101151.00;;;9.40
38114;BMP180;23926;53.222;6.354;2023-03-29T04:57:23;101164.00;;;9.30
38114;BMP180;23926;53.222;6.354;2023-03-29T04:59:49;101163.00;;;9.40
38114;BMP180;23926;53.222;6.354;2023-03-29T05:02:14;101163.00;;;9.30
38114;BMP180;23926;53.222;6.354;2023-03-29T05:04:39;101164.00;;;9.30
38114;BMP180;23926;53.222;6.354;2023-03-29T05:07:05;101159.00;;;9.30
38114;BMP180;23926;53.222;6.354;2023-03-29T05:09:30;101158.00;;;9.30
38114;BMP180;23926;53.222;6.354;2023-03-29T05:11:56;101158.00;;;9.40
38114;BMP180;23926;53.222;6.354;2023-03-29T05:14:21;101168.00;;;9.40
38114;BMP180;23926;53.222;6.354;2023-03-29T05:16:47;101161.00;;;9.40
38114;BMP180;23926;53.222;6.354;2023-03-29T05:19:13;101152.00;;;9.40
38114;BMP180;23926;53.222;6.354;2023-03-29T05:21:38;101161.00;;;9.40
38114;BMP180;23926;53.222;6.354;2023-03-29T05:24:04;101150.00;;;9.50
38114;BMP180;23926;53.222;6.354;2023-03-29T05:26:30;101165.00;;;9.50
38114;BMP180;23926;53.222;6.354;2023-03-29T05:28:56;101163.00;;;9.50
38114;BMP180;23926;53.222;6.354;2023-03-29T05:31:22;101168.00;;;9.50
38114;BMP180;23926;53.222;6.354;2023-03-29T05:33:48;101172.00;;;9.50
38114;BMP180;23926;53.222;6.354;2023-03-29T05:36:15;101164.00;;;9.60
38114;BMP180;23926;53.222;6.354;2023-03-29T05:38:41;101170.00;;;9.60
38114;BMP180;23926;53.222;6.354;2023-03-29T05:41:09;101160.00;;;9.60
38114;BMP180;23926;53.222;6.354;2023-03-29T05:43:35;101148.00;;;9.60
38114;BMP180;23926;53.222;6.354;2023-03-29T05:46:01;101160.00;;;9.60
38114;BMP180;23926;53.222;6.354;2023-03-29T05:48:26;101160.00;;;9.70
38114;BMP180;23926;53.222;6.354;2023-03-29T05:50:54;101170.00;;;9.70
38114;BMP180;23926;53.222;6.354;2023-03-29T05:53:21;101164.00;;;9.60
38114;BMP180;23926;53.222;6.354;2023-03-29T05:55:47;101163.00;;;9.60
38114;BMP180;23926;53.222;6.354;2023-03-29T05:58:13;101177.00;;;9.60
38114;BMP180;23926;53.222;6.354;2023-03-29T06:00:40;101170.00;;;9.60
38114;BMP180;23926;53.222;6.354;2023-03-29T06:03:06;101158.00;;;9.60
38114;BMP180;23926;53.222;6.354;2023-03-29T06:05:33;101179.00;;;9.70
38114;BMP180;23926;53.222;6.354;2023-03-29T06:08:00;101167.00;;;9.80
38114;BMP180;23926;53.222;6.354;2023-03-29T06:11:13;101173.00;;;9.70
38114;BMP180;23926;53.222;6.354;2023-03-29T06:13:56;101164.00;;;9.80
38114;BMP180;23926;53.222;6.354;2023-03-29T06:16:34;101169.00;;;9.80
38114;BMP180;23926;53.222;6.354;2023-03-29T06:19:03;101160.00;;;9.80
38114;BMP180;23926;53.222;6.354;2023-03-29T06:21:31;101165.00;;;9.80
38114;BMP180;23926;53.222;6.354;2023-03-29T06:23:57;101169.00;;;9.70
38114;BMP180;23926;53.222;6.354;2023-03-29T06:26:23;101177.00;;;9.80
38114;BMP180;23926;53.222;6.354;2023-03-29T06:28:49;101170.00;;;9.70
38114;BMP180;23926;53.222;6.354;2023-03-29T06:31:14;101179.00;;;9.80
38114;BMP180;23926;53.222;6.354;2023-03-29T06:33:40;101188.00;;;9.80
38114;BMP180;23926;53.222;6.354;2023-03-29T06:36:08;101169.00;;;9.90
38114;BMP180;23926;53.222;6.354;2023-03-29T06:38:34;101173.00;;;9.90
38114;BMP180;23926;53.222;6.354;2023-03-29T06:41:06;101175.00;;;10.00
38114;BMP180;23926;53.222;6.354;2023-03-29T06:43:32;101169.00;;;10.00
38114;BMP180;23926;53.222;6.354;2023-03-29T06:45:59;101172.00;;;10.10
38114;BMP180;23926;53.222;6.354;2023-03-29T06:48:25;101169.00;;;10.20
38114;BMP180;23926;53.222;6.354;2023-03-29T06:50:50;101163.00;;;10.30
38114;BMP180;23926;53.222;6.354;2023-03-29T06:53:17;101169.00;;;10.30
38114;BMP180;23926;53.222;6.354;2023-03-29T06:55:43;101168.00;;;10.30
38114;BMP180;23926;53.222;6.354;2023-03-29T06:58:08;101164.00;;;10.40
38114;BMP180;23926;53.222;6.354;2023-03-29T07:00:35;101172.00;;;10.60
38114;BMP180;23926;53.222;6.354;2023-03-29T07:03:05;101180.00;;;10.60
38114;BMP180;23926;53.222;6.354;2023-03-29T07:05:31;101183.00;;;10.70
38114;BMP180;23926;53.222;6.354;2023-03-29T07:07:57;101177.00;;;10.70
38114;BMP180;23926;53.222;6.354;2023-03-29T07:10:37;101181.00;;;10.90
38114;BMP180;23926;53.222;6.354;2023-03-29T07:13:05;101182.00;;;11.00
38114;BMP180;23926;53.222;6.354;2023-03-29T07:15:33;101172.00;;;11.00
38114;BMP180;23926;53.222;6.354;2023-03-29T07:17:59;101185.00;;;10.90
38114;BMP180;23926;53.222;6.354;2023-03-29T07:20:27;101189.00;;;10.90
38114;BMP180;23926;53.222;6.354;2023-03-29T07:22:53;101177.00;;;10.90
38114;BMP180;23926;53.222;6.354;2023-03-29T07:25:23;101195.00;;;10.90
38114;BMP180;23926;53.222;6.354;2023-03-29T07:27:49;101204.00;;;10.90
38114;BMP180;23926;53.222;6.354;2023-03-29T07:33:28;101203.00;;;10.90
38114;BMP180;23926;53.222;6.354;2023-03-29T07:35:53;101202.00;;;11.00
38114;BMP180;23926;53.222;6.354;2023-03-29T07:38:19;101196.00;;;11.10
38114;BMP180;23926;53.222;6.354;2023-03-29T07:40:44;101190.00;;;11.10
38114;BMP180;23926;53.222;6.354;2023-03-29T07:43:10;101188.00;;;11.10
38114;BMP180;23926;53.222;6.354;2023-03-29T07:45:35;101200.00;;;11.20
38114;BMP180;23926;53.222;6.354;2023-03-29T07:48:01;101198.00;;;11.30
38114;BMP180;23926;53.222;6.354;2023-03-29T07:50:27;101212.00;;;11.40
38114;BMP180;23926;53.222;6.354;2023-03-29T07:52:53;101208.00;;;11.50
38114;BMP180;23926;53.222;6.354;2023-03-29T07:55:18;101204.00;;;11.50
38114;BMP180;23926;53.222;6.354;2023-03-29T07:57:44;101196.00;;;11.60
38114;BMP180;23926;53.222;6.354;2023-03-29T08:00:11;101199.00;;;11.80
38114;BMP180;23926;53.222;6.354;2023-03-29T08:02:44;101188.00;;;12.00
38114;BMP180;23926;53.222;6.354;2023-03-29T08:05:10;101184.00;;;11.90
38114;BMP180;23926;53.222;6.354;2023-03-29T08:07:37;101199.00;;;12.00
38114;BMP180;23926;53.222;6.354;2023-03-29T08:10:04;101208.00;;;11.90
38114;BMP180;23926;53.222;6.354;2023-03-29T08:12:29;101199.00;;;12.10
38114;BMP180;23926;53.222;6.354;2023-03-29T08:14:55;101200.00;;;12.30
38114;BMP180;23926;53.222;6.354;2023-03-29T08:17:20;101189.00;;;12.40
38114;BMP180;23926;53.222;6.354;2023-03-29T08:19:46;101182.00;;;12.30
38114;BMP180;23926;53.222;6.354;2023-03-29T08:22:11;101186.00;;;12.40
38114;BMP180;23926;53.222;6.354;2023-03-29T08:24:36;101188.00;;;12.30
38114;BMP180;23926;53.222;6.354;2023-03-29T08:27:02;101181.00;;;12.40
38114;BMP180;23926;53.222;6.354;2023-03-29T08:29:28;101178.00;;;12.40
38114;BMP180;23926;53.222;6.354;2023-03-29T08:31:56;101192.00;;;12.50
38114;BMP180;23926;53.222;6.354;2023-03-29T08:34:22;101194.00;;;12.70
38114;BMP180;23926;53.222;6.354;2023-03-29T08:36:47;101183.00;;;12.80
38114;BMP180;23926;53.222;6.354;2023-03-29T08:39:13;101184.00;;;12.90
38114;BMP180;23926;53.222;6.354;2023-03-29T08:49:42;101179.00;;;13.30
38114;BMP180;23926;53.222;6.354;2023-03-29T08:52:44;101173.00;;;13.50
38114;BMP180;23926;53.222;6.354;2023-03-29T08:55:14;101178.00;;;13.40
38114;BMP180;23926;53.222;6.354;2023-03-29T08:57:46;101197.00;;;13.40
38114;BMP180;23926;53.222;6.354;2023-03-29T09:03:02;101175.00;;;13.60
38114;BMP180;23926;53.222;6.354;2023-03-29T09:05:36;101164.00;;;13.60
38114;BMP180;23926;53.222;6.354;2023-03-29T09:08:10;101168.00;;;13.80
38114;BMP180;23926;53.222;6.354;2023-03-29T09:10:45;101191.00;;;13.70
38114;BMP180;23926;53.222;6.354;2023-03-29T09:13:24;101160.00;;;13.80
38114;BMP180;23926;53.222;6.354;2023-03-29T09:16:06;101160.00;;;13.90
38114;BMP180;23926;53.222;6.354;2023-03-29T09:18:47;101153.00;;;13.90
38114;BMP180;23926;53.222;6.354;2023-03-29T09:21:28;101133.00;;;14.00
38114;BMP180;23926;53.222;6.354;2023-03-29T09:24:12;101119.00;;;14.20
38114;BMP180;23926;53.222;6.354;2023-03-29T09:26:51;101111.00;;;14.30
38114;BMP180;23926;53.222;6.354;2023-03-29T09:32:18;101137.00;;;14.30
38114;BMP180;23926;53.222;6.354;2023-03-29T09:34:52;101124.00;;;14.60
38114;BMP180;23926;53.222;6.354;2023-03-29T09:37:27;101127.00;;;14.50
38114;BMP180;23926;53.222;6.354;2023-03-29T09:39:55;101131.00;;;14.60
38114;BMP180;23926;53.222;6.354;2023-03-29T09:42:22;101133.00;;;14.80
38114;BMP180;23926;53.222;6.354;2023-03-29T09:44:52;101134.00;;;14.90
38114;BMP180;23926;53.222;6.354;2023-03-29T09:50:36;101161.00;;;14.90
38114;BMP180;23926;53.222;6.354;2023-03-29T09:53:03;101153.00;;;15.00
38114;BMP180;23926;53.222;6.354;2023-03-29T09:55:32;101148.00;;;15.00
38114;BMP180;23926;53.222;6.354;2023-03-29T09:58:11;101153.00;;;15.00
38114;BMP180;23926;53.222;6.354;2023-03-29T10:00:37;101161.00;;;14.90
38114;BMP180;23926;53.222;6.354;2023-03-29T10:03:03;101152.00;;;14.80
38114;BMP180;23926;53.222;6.354;2023-03-29T10:05:31;101161.00;;;14.70
38114;BMP180;23926;53.222;6.354;2023-03-29T10:07:59;101157.00;;;14.90
38114;BMP180;23926;53.222;6.354;2023-03-29T10:10:30;101157.00;;;14.90
38114;BMP180;23926;53.222;6.354;2023-03-29T10:13:03;101169.00;;;15.00
38114;BMP180;23926;53.222;6.354;2023-03-29T10:15:29;101151.00;;;14.90
38114;BMP180;23926;53.222;6.354;2023-03-29T10:18:04;101152.00;;;14.70
38114;BMP180;23926;53.222;6.354;2023-03-29T10:20:34;101161.00;;;14.80
38114;BMP180;23926;53.222;6.354;2023-03-29T10:22:59;101164.00;;;14.70
38114;BMP180;23926;53.222;6.354;2023-03-29T10:25:30;101161.00;;;14.60
38114;BMP180;23926;53.222;6.354;2023-03-29T10:28:11;101147.00;;;14.60
38114;BMP180;23926;53.222;6.354;2023-03-29T10:30:38;101148.00;;;14.70
38114;BMP180;23926;53.222;6.354;2023-03-29T10:33:05;101154.00;;;14.90
38114;BMP180;23926;53.222;6.354;2023-03-29T10:35:33;101154.00;;;15.00
38114;BMP180;23926;53.222;6.354;2023-03-29T10:38:05;101146.00;;;15.00
38114;BMP180;23926;53.222;6.354;2023-03-29T10:40:41;101161.00;;;15.20
38114;BMP180;23926;53.222;6.354;2023-03-29T10:45:41;101159.00;;;15.10
38114;BMP180;23926;53.222;6.354;2023-03-29T10:48:11;101154.00;;;15.20
38114;BMP180;23926;53.222;6.354;2023-03-29T10:50:37;101152.00;;;15.20
38114;BMP180;23926;53.222;6.354;2023-03-29T10:53:13;101145.00;;;15.40
38114;BMP180;23926;53.222;6.354;2023-03-29T10:55:51;101125.00;;;15.70
38114;BMP180;23926;53.222;6.354;2023-03-29T11:04:36;101155.00;;;16.00
38114;BMP180;23926;53.222;6.354;2023-03-29T11:07:24;101159.00;;;16.10
38114;BMP180;23926;53.222;6.354;2023-03-29T11:10:14;101150.00;;;16.20
38114;BMP180;23926;53.222;6.354;2023-03-29T11:13:12;101143.00;;;16.80
38114;BMP180;23926;53.222;6.354;2023-03-29T11:18:29;101139.00;;;17.10
38114;BMP180;23926;53.222;6.354;2023-03-29T11:27:00;101150.00;;;16.80
38114;BMP180;23926;53.222;6.354;2023-03-29T11:32:37;101140.00;;;16.90
38114;BMP180;23926;53.222;6.354;2023-03-29T11:38:09;101155.00;;;17.20
38114;BMP180;23926;53.222;6.354;2023-03-29T11:43:20;101162.00;;;17.20
38114;BMP180;23926;53.222;6.354;2023-03-29T11:48:39;101152.00;;;17.10
38114;BMP180;23926;53.222;6.354;2023-03-29T11:51:22;101148.00;;;17.10
38114;BMP180;23926;53.222;6.354;2023-03-29T11:56:48;101144.00;;;17.00
38114;BMP180;23926;53.222;6.354;2023-03-29T11:59:27;101139.00;;;17.00
38114;BMP180;23926;53.222;6.354;2023-03-29T12:02:04;101133.00;;;17.00
38114;BMP180;23926;53.222;6.354;2023-03-29T12:04:41;101135.00;;;17.30
38114;BMP180;23926;53.222;6.354;2023-03-29T12:09:47;101126.00;;;17.50
38114;BMP180;23926;53.222;6.354;2023-03-29T12:15:08;101131.00;;;17.50
38114;BMP180;23926;53.222;6.354;2023-03-29T12:17:44;101121.00;;;17.60
38114;BMP180;23926;53.222;6.354;2023-03-29T12:20:20;101118.00;;;17.60
38114;BMP180;23926;53.222;6.354;2023-03-29T12:22:48;101113.00;;;17.50
38114;BMP180;23926;53.222;6.354;2023-03-29T12:25:19;101114.00;;;17.50
38114;BMP180;23926;53.222;6.354;2023-03-29T12:30:57;101123.00;;;17.70
38114;BMP180;23926;53.222;6.354;2023-03-29T12:33:48;101121.00;;;17.60
38114;BMP180;23926;53.222;6.354;2023-03-29T12:38:57;101113.00;;;17.60
38114;BMP180;23926;53.222;6.354;2023-03-29T12:41:23;101122.00;;;17.80
38114;BMP180;23926;53.222;6.354;2023-03-29T12:43:49;101110.00;;;18.00
38114;BMP180;23926;53.222;6.354;2023-03-29T12:48:41;101106.00;;;18.00
38114;BMP180;23926;53.222;6.354;2023-03-29T12:51:26;101113.00;;;18.00
38114;BMP180;23926;53.222;6.354;2023-03-29T12:53:54;101112.00;;;18.10
38114;BMP180;23926;53.222;6.354;2023-03-29T12:56:38;101117.00;;;18.10
38114;BMP180;23926;53.222;6.354;2023-03-29T12:59:35;101118.00;;;18.10
38114;BMP180;23926;53.222;6.354;2023-03-29T13:04:57;101108.00;;;17.70
38114;BMP180;23926;53.222;6.354;2023-03-29T13:09:59;101090.00;;;17.60
38114;BMP180;23926;53.222;6.354;2023-03-29T13:12:40;101090.00;;;17.40
38114;BMP180;23926;53.222;6.354;2023-03-29T13:31:10;101090.00;;;17.60
38114;BMP180;23926;53.222;6.354;2023-03-29T13:33:52;101088.00;;;17.70
38114;BMP180;23926;53.222;6.354;2023-03-29T13:39:00;101071.00;;;18.00
38114;BMP180;23926;53.222;6.354;2023-03-29T13:44:16;101064.00;;;18.10
38114;BMP180;23926;53.222;6.354;2023-03-29T13:46:42;101063.00;;;18.20
38114;BMP180;23926;53.222;6.354;2023-03-29T13:51:40;101067.00;;;18.50
38114;BMP180;23926;53.222;6.354;2023-03-29T13:56:51;101055.00;;;18.70
38114;BMP180;23926;53.222;6.354;2023-03-29T13:59:26;101061.00;;;18.50
38114;BMP180;23926;53.222;6.354;2023-03-29T14:01:55;101045.00;;;18.60
38114;BMP180;23926;53.222;6.354;2023-03-29T14:04:25;101041.00;;;18.60
38114;BMP180;23926;53.222;6.354;2023-03-29T14:06:54;101048.00;;;18.60
38114;BMP180;23926;53.222;6.354;2023-03-29T14:09:28;101046.00;;;18.60
38114;BMP180;23926;53.222;6.354;2023-03-29T14:11:55;101042.00;;;18.70
38114;BMP180;23926;53.222;6.354;2023-03-29T14:14:25;101050.00;;;18.90
38114;BMP180;23926;53.222;6.354;2023-03-29T14:16:53;101032.00;;;18.90
38114;BMP180;23926;53.222;6.354;2023-03-29T14:19:31;101040.00;;;19.00
38114;BMP180;23926;53.222;6.354;2023-03-29T14:22:08;101047.00;;;19.10
38114;BMP180;23926;53.222;6.354;2023-03-29T14:24:45;101038.00;;;19.20
38114;BMP180;23926;53.222;6.354;2023-03-29T14:27:15;101043.00;;;19.30
38114;BMP180;23926;53.222;6.354;2023-03-29T14:29:44;101031.00;;;19.30
38114;BMP180;23926;53.222;6.354;2023-03-29T14:32:12;101041.00;;;19.10
38114;BMP180;23926;53.222;6.354;2023-03-29T14:34:38;101036.00;;;19.10
38114;BMP180;23926;53.222;6.354;2023-03-29T14:37:05;101051.00;;;19.00
38114;BMP180;23926;53.222;6.354;2023-03-29T14:39:33;101044.00;;;18.90
38114;BMP180;23926;53.222;6.354;2023-03-29T14:41:59;101015.00;;;18.90
38114;BMP180;23926;53.222;6.354;2023-03-29T14:44:32;101021.00;;;18.80
38114;BMP180;23926;53.222;6.354;2023-03-29T14:46:58;101019.00;;;18.50
38114;BMP180;23926;53.222;6.354;2023-03-29T14:49:25;101005.00;;;18.80
38114;BMP180;23926;53.222;6.354;2023-03-29T14:51:51;100994.00;;;18.80
38114;BMP180;23926;53.222;6.354;2023-03-29T14:54:21;101008.00;;;18.90
38114;BMP180;23926;53.222;6.354;2023-03-29T14:56:48;100999.00;;;18.80
38114;BMP180;23926;53.222;6.354;2023-03-29T14:59:47;101008.00;;;18.70
38114;BMP180;23926;53.222;6.354;2023-03-29T15:04:59;100978.00;;;18.90
38114;BMP180;23926;53.222;6.354;2023-03-29T15:07:28;100989.00;;;18.90
38114;BMP180;23926;53.222;6.354;2023-03-29T15:09:55;100983.00;;;18.80
38114;BMP180;23926;53.222;6.354;2023-03-29T15:12:21;100973.00;;;18.90
38114;BMP180;23926;53.222;6.354;2023-03-29T15:14:48;100984.00;;;18.90
38114;BMP180;23926;53.222;6.354;2023-03-29T15:20:07;100983.00;;;18.50
38114;BMP180;23926;53.222;6.354;2023-03-29T15:22:38;100977.00;;;18.40
38114;BMP180;23926;53.222;6.354;2023-03-29T15:25:15;100989.00;;;18.20
38114;BMP180;23926;53.222;6.354;2023-03-29T15:27:42;100974.00;;;18.10
38114;BMP180;23926;53.222;6.354;2023-03-29T15:30:11;100976.00;;;18.10
38114;BMP180;23926;53.222;6.354;2023-03-29T15:32:36;100969.00;;;17.90
38114;BMP180;23926;53.222;6.354;2023-03-29T15:35:06;100968.00;;;17.70
38114;BMP180;23926;53.222;6.354;2023-03-29T15:37:35;100966.00;;;17.60
38114;BMP180;23926;53.222;6.354;2023-03-29T15:40:00;100960.00;;;17.60
38114;BMP180;23926;53.222;6.354;2023-03-29T15:42:34;100959.00;;;17.50
38114;BMP180;23926;53.222;6.354;2023-03-29T15:45:02;100960.00;;;17.50
38114;BMP180;23926;53.222;6.354;2023-03-29T15:47:29;100957.00;;;17.50
38114;BMP180;23926;53.222;6.354;2023-03-29T15:49:54;100957.00;;;17.40
38114;BMP180;23926;53.222;6.354;2023-03-29T15:52:20;100962.00;;;17.40
38114;BMP180;23926;53.222;6.354;2023-03-29T15:54:46;100959.00;;;17.20
38114;BMP180;23926;53.222;6.354;2023-03-29T15:57:14;100959.00;;;17.20
38114;BMP180;23926;53.222;6.354;2023-03-29T15:59:41;100952.00;;;17.10
38114;BMP180;23926;53.222;6.354;2023-03-29T16:02:12;100959.00;;;17.00
38114;BMP180;23926;53.222;6.354;2023-03-29T16:04:40;100951.00;;;17.00
38114;BMP180;23926;53.222;6.354;2023-03-29T16:07:11;100930.00;;;17.00
38114;BMP180;23926;53.222;6.354;2023-03-29T16:09:37;100937.00;;;17.00
38114;BMP180;23926;53.222;6.354;2023-03-29T16:12:03;100924.00;;;17.00
38114;BMP180;23926;53.222;6.354;2023-03-29T16:14:29;100927.00;;;16.90